Time;durP1;ratioP1;P1;durP2;ratioP2;P2;SDS_P1;SDS_P2;PMS_P1;PMS_P2;Temp;Humidity;BMP_temperature;BMP_pressure;BME280_temperature;BME280_humidity;BME280_pressure;Samples;Min_cycle;Max_cycle;Signal;HPM_P1;HPM_P2
2023/12/20 00:01:23;;;;;;;22.55;5.85;;;7.40;99.90;;;;;;5029535;28;20443;-72
2023/12/20 00:03:48;;;;;;;21.45;5.90;;;7.40;99.90;;;;;;5028758;28;20017;-72
2023/12/20 00:06:14;;;;;;;14.98;4.40;;;7.40;99.90;;;;;;5029320;28;20040;-72
2023/12/20 00:08:40;;;;;;;16.08;4.50;;;7.40;99.90;;;;;;5028864;28;20017;-71
2023/12/20 00:11:05;;;;;;;20.70;5.47;;;7.30;99.90;;;;;;5027875;28;20022;-72
2023/12/20 00:13:31;;;;;;;14.70;3.58;;;7.30;99.90;;;;;;5029151;28;20022;-72
2023/12/20 00:15:57;;;;;;;25.00;5.03;;;7.30;99.90;;;;;;5028960;28;20216;-72
2023/12/20 00:18:23;;;;;;;20.25;4.68;;;7.30;99.90;;;;;;5027165;28;20029;-72
2023/12/20 00:20:49;;;;;;;22.15;4.82;;;7.20;99.90;;;;;;5028730;28;20486;-72
2023/12/20 00:23:14;;;;;;;29.70;4.38;;;7.20;99.90;;;;;;5028658;28;20101;-71
2023/12/20 00:25:40;;;;;;;20.05;4.30;;;7.20;99.90;;;;;;5028610;28;20132;-71
2023/12/20 00:28:06;;;;;;;18.70;3.97;;;7.20;99.90;;;;;;5028771;28;20140;-73
2023/12/20 00:33:00;;;;;;;18.15;3.83;;;7.20;99.90;;;;;;5026725;28;20046;-71
2023/12/20 00:35:25;;;;;;;17.23;3.70;;;7.20;99.90;;;;;;5027484;28;20028;-72
2023/12/20 00:37:51;;;;;;;22.45;4.43;;;7.20;99.90;;;;;;5028350;28;20025;-71
2023/12/20 00:40:16;;;;;;;28.05;4.57;;;7.10;99.90;;;;;;5028454;28;20104;-71
2023/12/20 00:42:42;;;;;;;29.48;4.53;;;7.10;99.90;;;;;;5028059;28;20522;-71
2023/12/20 00:45:08;;;;;;;23.83;4.00;;;7.20;99.90;;;;;;5026646;28;20588;-71
2023/12/20 00:47:34;;;;;;;23.55;3.72;;;7.10;99.90;;;;;;5028592;28;20033;-71
2023/12/20 00:49:59;;;;;;;24.50;4.45;;;7.10;99.90;;;;;;5028303;28;20386;-72
2023/12/20 00:52:25;;;;;;;21.88;4.07;;;7.10;99.90;;;;;;5026859;28;20482;-71
2023/12/20 00:54:51;;;;;;;23.20;3.30;;;7.00;99.90;;;;;;5027966;28;20079;-72
2023/12/20 00:57:16;;;;;;;21.20;4.03;;;7.00;99.90;;;;;;5028281;28;20521;-72
2023/12/20 00:59:42;;;;;;;23.58;4.45;;;7.00;99.90;;;;;;5027776;28;20431;-72
2023/12/20 01:02:08;;;;;;;24.40;4.10;;;7.00;99.90;;;;;;5027117;28;20029;-72
2023/12/20 01:04:34;;;;;;;29.55;3.65;;;7.00;99.90;;;;;;5027852;28;20414;-72
2023/12/20 01:07:00;;;;;;;18.25;3.47;;;7.00;99.90;;;;;;5028038;28;20034;-71
2023/12/20 01:09:28;;;;;;;17.23;3.45;;;7.00;99.90;;;;;;5027674;28;20026;-72
2023/12/20 01:11:54;;;;;;;24.08;3.97;;;7.00;99.90;;;;;;5027936;28;20018;-72
2023/12/20 01:14:20;;;;;;;21.77;4.20;;;7.00;99.90;;;;;;5027647;28;20068;-72
2023/12/20 01:16:46;;;;;;;25.95;4.28;;;6.90;99.90;;;;;;5027867;28;20067;-72
2023/12/20 01:19:13;;;;;;;18.85;3.55;;;6.90;99.90;;;;;;5027661;28;20041;-72
2023/12/20 01:21:39;;;;;;;21.10;3.38;;;6.90;99.90;;;;;;5027643;28;20037;-72
2023/12/20 01:24:06;;;;;;;20.38;4.13;;;6.90;99.90;;;;;;5027588;28;20033;-72
2023/12/20 01:26:31;;;;;;;19.48;3.30;;;6.90;99.90;;;;;;5012456;28;20041;-71
2023/12/20 01:28:57;;;;;;;17.08;3.10;;;6.80;99.90;;;;;;5025877;28;20033;-71
2023/12/20 01:31:23;;;;;;;18.73;2.95;;;6.80;99.90;;;;;;5027425;28;20068;-71
2023/12/20 01:33:48;;;;;;;23.55;3.58;;;6.80;99.90;;;;;;5027238;28;20071;-72
2023/12/20 01:36:15;;;;;;;18.95;3.08;;;6.80;99.90;;;;;;5027541;28;20033;-72
2023/12/20 01:38:41;;;;;;;18.48;2.63;;;6.80;99.90;;;;;;5026905;28;20033;-71
2023/12/20 01:41:07;;;;;;;27.80;3.58;;;6.80;99.90;;;;;;5027376;28;20665;-71
2023/12/20 01:43:32;;;;;;;20.30;2.85;;;6.70;99.90;;;;;;5025905;28;20059;-71
2023/12/20 01:45:59;;;;;;;17.00;2.97;;;6.80;99.90;;;;;;5027382;28;20069;-72
2023/12/20 01:48:26;;;;;;;28.58;3.63;;;6.80;99.90;;;;;;5026943;28;20481;-71
2023/12/20 01:50:52;;;;;;;19.45;3.25;;;6.80;99.90;;;;;;5026044;28;20014;-72
2023/12/20 01:53:20;;;;;;;16.05;2.85;;;6.70;99.90;;;;;;5027071;28;20076;-72
2023/12/20 01:55:48;;;;;;;21.13;2.90;;;6.80;99.90;;;;;;5026979;28;20033;-72
2023/12/20 01:58:14;;;;;;;16.85;2.45;;;6.80;99.90;;;;;;5026973;28;20035;-72
2023/12/20 02:00:40;;;;;;;14.85;2.75;;;6.70;99.90;;;;;;5026899;28;20482;-72
2023/12/20 02:03:06;;;;;;;19.02;3.35;;;6.70;99.90;;;;;;5025517;28;20099;-71
2023/12/20 02:05:34;;;;;;;22.50;3.00;;;6.70;99.90;;;;;;5025365;28;20061;-72
2023/12/20 02:08:00;;;;;;;17.38;3.10;;;6.70;99.90;;;;;;5026815;28;20459;-72
2023/12/20 02:10:26;;;;;;;21.88;3.00;;;6.70;99.90;;;;;;5027145;28;20059;-72
2023/12/20 02:12:51;;;;;;;23.08;3.72;;;6.70;99.90;;;;;;5026568;28;20489;-72
2023/12/20 02:15:17;;;;;;;19.17;3.05;;;6.70;99.90;;;;;;5026621;28;20458;-72
2023/12/20 02:17:45;;;;;;;26.85;3.78;;;6.60;99.90;;;;;;5026507;28;20021;-72
2023/12/20 02:20:10;;;;;;;23.60;3.55;;;6.60;99.90;;;;;;5026721;28;20026;-72
2023/12/20 02:22:36;;;;;;;22.13;3.63;;;6.60;99.90;;;;;;5029308;28;20088;-71
2023/12/20 02:25:02;;;;;;;26.67;3.72;;;6.60;99.90;;;;;;5028428;28;20521;-72
2023/12/20 02:27:28;;;;;;;19.55;4.22;;;6.60;99.90;;;;;;5026737;28;20068;-72
2023/12/20 02:29:54;;;;;;;22.85;3.33;;;6.60;99.90;;;;;;5026256;28;20029;-72
2023/12/20 02:32:22;;;;;;;23.38;3.53;;;6.60;99.90;;;;;;5026873;28;20058;-72
2023/12/20 02:34:49;;;;;;;26.05;4.45;;;6.60;99.90;;;;;;5026587;28;20655;-71
2023/12/20 02:37:15;;;;;;;23.27;3.90;;;6.60;99.90;;;;;;5026660;28;20120;-71
2023/12/20 02:39:41;;;;;;;17.77;4.45;;;6.60;99.90;;;;;;5024968;28;20575;-72
2023/12/20 02:42:06;;;;;;;27.00;4.25;;;6.60;99.90;;;;;;5026588;28;20044;-72
2023/12/20 02:44:32;;;;;;;22.42;5.13;;;6.60;99.90;;;;;;5026466;28;20036;-72
2023/12/20 02:46:58;;;;;;;27.13;4.75;;;6.70;99.90;;;;;;5026360;28;20797;-71
2023/12/20 02:49:23;;;;;;;21.27;4.05;;;6.70;99.90;;;;;;5024820;28;20025;-72
2023/12/20 02:51:49;;;;;;;27.90;3.90;;;6.70;99.90;;;;;;5026262;28;20049;-72
2023/12/20 02:54:14;;;;;;;28.20;4.25;;;6.70;99.90;;;;;;5026219;28;20033;-71
2023/12/20 02:56:40;;;;;;;22.80;4.90;;;6.70;99.90;;;;;;5026340;28;20052;-71
2023/12/20 02:59:08;;;;;;;28.50;4.75;;;6.70;99.90;;;;;;5024730;28;20025;-72
2023/12/20 03:01:34;;;;;;;35.08;4.75;;;6.80;99.90;;;;;;5026520;28;20116;-72
2023/12/20 03:03:59;;;;;;;32.35;4.90;;;6.80;99.90;;;;;;5025735;28;20091;-72
2023/12/20 03:06:25;;;;;;;22.27;4.88;;;6.80;99.90;;;;;;5026430;28;20773;-72
2023/12/20 03:08:51;;;;;;;26.02;5.65;;;6.70;99.90;;;;;;5025787;28;20038;-72
2023/12/20 03:11:16;;;;;;;25.70;3.83;;;6.70;99.90;;;;;;5026288;28;20025;-72
2023/12/20 03:13:42;;;;;;;19.70;3.40;;;6.70;99.90;;;;;;5026139;28;20121;-72
2023/12/20 03:16:12;;;;;;;24.80;4.63;;;6.70;99.90;;;;;;5026184;28;20113;-72
2023/12/20 03:18:37;;;;;;;20.33;4.03;;;6.70;99.90;;;;;;5025980;28;20627;-72
2023/12/20 03:21:04;;;;;;;20.73;4.10;;;6.70;99.90;;;;;;5026403;28;20033;-72
2023/12/20 03:23:32;;;;;;;21.17;4.20;;;6.70;99.90;;;;;;5029054;28;20026;-72
2023/12/20 03:25:58;;;;;;;21.30;3.83;;;6.70;99.90;;;;;;5029096;28;20029;-72
2023/12/20 03:28:24;;;;;;;23.83;4.20;;;6.70;99.90;;;;;;5029726;28;20471;-72
2023/12/20 03:30:49;;;;;;;21.77;4.35;;;6.70;99.90;;;;;;5028362;28;20033;-72
2023/12/20 03:33:15;;;;;;;20.88;4.10;;;6.70;99.90;;;;;;5029794;28;20041;-72
2023/12/20 03:35:41;;;;;;;27.63;4.70;;;6.60;99.90;;;;;;5029568;28;20053;-71
2023/12/20 03:38:07;;;;;;;17.77;4.50;;;6.60;99.90;;;;;;5029787;28;20670;-71
2023/12/20 03:40:33;;;;;;;25.80;4.18;;;6.60;99.90;;;;;;5029361;28;20480;-72
2023/12/20 03:42:58;;;;;;;25.58;3.85;;;6.60;99.90;;;;;;5029302;28;20017;-72
2023/12/20 03:45:24;;;;;;;20.75;3.75;;;6.60;99.90;;;;;;5029384;28;20528;-72
2023/12/20 03:47:54;;;;;;;26.02;5.35;;;6.60;99.90;;;;;;5029464;28;20022;-72
2023/12/20 03:50:21;;;;;;;21.63;3.93;;;6.60;99.90;;;;;;5025792;28;20028;-72
2023/12/20 03:52:47;;;;;;;21.48;4.18;;;6.60;99.90;;;;;;5029677;28;20524;-72
2023/12/20 03:55:13;;;;;;;29.30;4.63;;;6.50;99.90;;;;;;5029313;28;20025;-72
2023/12/20 03:57:39;;;;;;;32.45;4.75;;;6.60;99.90;;;;;;5029389;28;20116;-72
2023/12/20 04:00:10;;;;;;;27.75;4.60;;;6.50;99.90;;;;;;5029097;28;20471;-72
2023/12/20 04:02:38;;;;;;;;;;;6.50;99.90;;;;;;5098316;22;20538;-72
2023/12/20 04:05:05;;;;;;;31.17;4.80;;;6.60;99.90;;;;;;5027544;28;19912;-72
2023/12/20 04:07:30;;;;;;;24.38;4.40;;;6.60;99.90;;;;;;5029204;28;20253;-72
2023/12/20 04:09:56;;;;;;;29.60;4.80;;;6.50;99.90;;;;;;5028803;28;20017;-72
2023/12/20 04:12:21;;;;;;;33.35;4.88;;;6.50;99.90;;;;;;5029265;28;20112;-72
2023/12/20 04:14:47;;;;;;;24.40;4.43;;;6.50;99.90;;;;;;5027239;28;20025;-72
2023/12/20 04:17:13;;;;;;;20.77;5.13;;;6.50;99.90;;;;;;5029005;28;20029;-72
2023/12/20 04:19:39;;;;;;;29.58;4.55;;;6.50;99.90;;;;;;5028745;28;20029;-72
2023/12/20 04:22:05;;;;;;;20.50;4.28;;;6.50;99.90;;;;;;5029371;28;20080;-72
2023/12/20 04:24:30;;;;;;;25.83;4.75;;;6.50;99.90;;;;;;5028798;28;20487;-72
2023/12/20 04:26:56;;;;;;;24.48;4.45;;;6.50;99.90;;;;;;5028702;28;20135;-72
2023/12/20 04:29:22;;;;;;;24.77;4.78;;;6.50;99.90;;;;;;5028599;28;20033;-73
2023/12/20 04:31:47;;;;;;;19.92;4.13;;;6.50;99.90;;;;;;5028715;28;20079;-72
2023/12/20 04:34:13;;;;;;;22.88;4.15;;;6.50;99.90;;;;;;5028822;28;20506;-72
2023/12/20 04:36:39;;;;;;;22.13;4.45;;;6.50;99.90;;;;;;5028469;28;20025;-72
2023/12/20 04:39:04;;;;;;;27.08;4.50;;;6.50;99.90;;;;;;5026890;28;20560;-72
2023/12/20 04:41:30;;;;;;;28.77;4.82;;;6.50;99.90;;;;;;5028600;28;20060;-72
2023/12/20 04:43:56;;;;;;;28.90;4.97;;;6.50;99.90;;;;;;5028213;28;20026;-73
2023/12/20 04:46:21;;;;;;;29.33;4.28;;;6.60;99.90;;;;;;5028572;28;20091;-72
2023/12/20 04:48:47;;;;;;;24.65;4.22;;;6.60;99.90;;;;;;5028033;28;20438;-72
2023/12/20 04:51:12;;;;;;;26.20;4.50;;;6.60;99.90;;;;;;5028456;28;20033;-72
2023/12/20 04:53:38;;;;;;;19.95;4.10;;;6.60;99.90;;;;;;5028321;28;20026;-71
2023/12/20 04:56:04;;;;;;;18.98;3.85;;;6.60;99.90;;;;;;5028396;28;20029;-72
2023/12/20 04:58:29;;;;;;;32.20;4.85;;;6.60;99.90;;;;;;5028078;28;20814;-72
2023/12/20 05:00:55;;;;;;;21.33;4.65;;;6.60;99.90;;;;;;5028024;28;20064;-72
2023/12/20 05:03:21;;;;;;;21.38;3.67;;;6.60;99.90;;;;;;5027767;28;20068;-72
2023/12/20 05:05:46;;;;;;;24.13;4.35;;;6.70;99.90;;;;;;5027777;28;20463;-72
2023/12/20 05:08:12;;;;;;;28.52;4.13;;;6.70;99.90;;;;;;5028344;28;20025;-72
2023/12/20 05:10:38;;;;;;;19.85;4.43;;;6.70;99.90;;;;;;5027593;28;20510;-72
2023/12/20 05:13:03;;;;;;;24.95;4.13;;;6.70;99.90;;;;;;5028560;28;20014;-72
2023/12/20 05:15:29;;;;;;;19.05;3.60;;;6.80;99.90;;;;;;5026552;28;20426;-72
2023/12/20 05:17:55;;;;;;;28.08;4.35;;;6.80;99.90;;;;;;5028377;28;20030;-72
2023/12/20 05:20:20;;;;;;;27.20;4.03;;;6.80;99.90;;;;;;5027885;28;20104;-72
2023/12/20 05:22:47;;;;;;;23.75;4.53;;;6.80;99.90;;;;;;5027809;28;20647;-72
2023/12/20 05:25:12;;;;;;;29.85;3.95;;;6.90;99.90;;;;;;5027460;28;20026;-72
2023/12/20 05:27:38;;;;;;;24.27;3.63;;;6.90;99.90;;;;;;5027449;28;20033;-72
2023/12/20 05:30:04;;;;;;;34.17;4.90;;;6.90;99.90;;;;;;5027435;28;20028;-73
2023/12/20 05:32:31;;;;;;;25.60;3.97;;;6.90;99.90;;;;;;5027539;28;20044;-72
2023/12/20 05:34:56;;;;;;;28.33;3.95;;;7.00;99.90;;;;;;5026006;28;20022;-72
2023/12/20 05:37:22;;;;;;;21.45;3.60;;;7.00;99.90;;;;;;5027732;28;20033;-72
2023/12/20 05:39:48;;;;;;;25.67;4.45;;;7.00;99.90;;;;;;5027187;28;20045;-72
2023/12/20 05:42:13;;;;;;;29.95;3.60;;;7.10;99.90;;;;;;5027452;28;20433;-72
2023/12/20 05:44:39;;;;;;;29.58;3.75;;;7.10;99.90;;;;;;5026894;28;20390;-72
2023/12/20 05:47:05;;;;;;;31.20;3.83;;;7.10;99.90;;;;;;5026761;28;20063;-72
2023/12/20 05:49:31;;;;;;;21.17;3.72;;;7.20;99.90;;;;;;5027031;28;20017;-72
2023/12/20 05:51:57;;;;;;;32.10;4.35;;;7.20;99.90;;;;;;5027215;28;20052;-72
2023/12/20 05:54:22;;;;;;;19.25;4.05;;;7.20;99.90;;;;;;5027005;28;20064;-72
2023/12/20 05:56:48;;;;;;;24.15;4.40;;;7.20;99.90;;;;;;5025857;28;20025;-72
2023/12/20 05:59:14;;;;;;;26.80;3.38;;;7.30;99.90;;;;;;5026973;28;20017;-72
2023/12/20 06:01:40;;;;;;;26.85;3.47;;;7.30;99.90;;;;;;5026769;28;20049;-72
2023/12/20 06:04:05;;;;;;;21.90;3.05;;;7.30;99.90;;;;;;5026730;28;20017;-72
2023/12/20 06:06:31;;;;;;;30.33;3.15;;;7.30;99.90;;;;;;5027221;28;20029;-72
2023/12/20 06:08:57;;;;;;;23.85;3.40;;;7.30;99.90;;;;;;5026648;28;20018;-72
2023/12/20 06:11:23;;;;;;;26.77;3.50;;;7.30;99.90;;;;;;5027156;28;20029;-72
2023/12/20 06:13:51;;;;;;;23.35;3.78;;;7.40;99.90;;;;;;5026665;28;20077;-73
2023/12/20 06:16:17;;;;;;;30.20;4.15;;;7.40;99.90;;;;;;5026651;28;20029;-72
2023/12/20 06:18:42;;;;;;;25.85;3.80;;;7.40;99.90;;;;;;5026708;28;20033;-72
2023/12/20 06:21:08;;;;;;;25.85;3.75;;;7.40;99.90;;;;;;5026656;28;20029;-72
2023/12/20 06:23:34;;;;;;;28.67;3.80;;;7.30;99.90;;;;;;5026862;28;20403;-72
2023/12/20 06:25:59;;;;;;;26.70;3.80;;;7.40;99.90;;;;;;5026375;28;20026;-72
2023/12/20 06:28:25;;;;;;;18.42;3.63;;;7.40;99.90;;;;;;5026664;28;20021;-72
2023/12/20 06:30:52;;;;;;;26.08;3.53;;;7.40;99.90;;;;;;5026246;28;20025;-72
2023/12/20 06:33:18;;;;;;;30.63;5.53;;;7.40;99.90;;;;;;5026604;28;20018;-73
2023/12/20 06:35:44;;;;;;;22.15;3.50;;;7.40;99.90;;;;;;5026160;28;20052;-72
2023/12/20 06:38:10;;;;;;;26.58;4.50;;;7.40;99.90;;;;;;5026646;28;20057;-72
2023/12/20 06:40:35;;;;;;;24.05;3.20;;;7.40;99.90;;;;;;5023974;28;20022;-73
2023/12/20 06:43:01;;;;;;;30.13;4.28;;;7.50;99.90;;;;;;5026461;28;20060;-72
2023/12/20 06:45:27;;;;;;;21.33;3.30;;;7.50;99.90;;;;;;5026062;28;20473;-73
2023/12/20 06:47:52;;;;;;;17.58;3.08;;;7.50;99.90;;;;;;5026412;28;20056;-73
2023/12/20 06:50:18;;;;;;;21.10;3.63;;;7.50;99.90;;;;;;5025757;28;20052;-73
2023/12/20 06:52:44;;;;;;;23.13;4.50;;;7.50;99.90;;;;;;5026523;28;20060;-73
2023/12/20 06:55:09;;;;;;;28.42;3.65;;;7.50;99.90;;;;;;5026184;28;20487;-73
2023/12/20 06:57:36;;;;;;;22.52;3.13;;;7.50;99.90;;;;;;5025178;28;20036;-73
2023/12/20 07:00:02;;;;;;;24.65;4.03;;;7.40;99.90;;;;;;5027984;28;20088;-72
2023/12/20 07:02:30;;;;;;;28.17;3.97;;;7.40;99.90;;;;;;5028976;28;20053;-72
2023/12/20 07:04:56;;;;;;;22.20;3.97;;;7.40;99.90;;;;;;5028750;28;20044;-73
2023/12/20 07:07:23;;;;;;;25.00;4.13;;;7.40;99.90;;;;;;5030487;28;20638;-73
2023/12/20 07:09:48;;;;;;;26.63;3.65;;;7.40;99.90;;;;;;5029742;28;20040;-73
2023/12/20 07:12:14;;;;;;;19.95;3.45;;;7.40;99.90;;;;;;5028901;28;20022;-73
2023/12/20 07:14:40;;;;;;;31.10;4.43;;;7.40;99.90;;;;;;5028524;28;20033;-73
2023/12/20 07:17:11;;;;;;;24.15;4.10;;;7.50;99.90;;;;;;5030031;28;20017;-73
2023/12/20 07:19:37;;;;;;;22.70;3.92;;;7.40;99.90;;;;;;5028281;28;20573;-73
2023/12/20 07:22:04;;;;;;;29.30;4.68;;;7.50;99.90;;;;;;5028964;28;20041;-73
2023/12/20 07:24:29;;;;;;;32.22;5.05;;;7.40;99.90;;;;;;5028380;28;20569;-73
2023/12/20 07:26:55;;;;;;;26.83;3.78;;;7.40;99.90;;;;;;5029686;28;20117;-73
2023/12/20 07:29:21;;;;;;;22.42;3.95;;;7.50;99.90;;;;;;5026812;28;20091;-73
2023/12/20 07:31:46;;;;;;;22.25;3.42;;;7.50;99.90;;;;;;5029526;28;20437;-73
2023/12/20 07:34:12;;;;;;;17.08;3.13;;;7.50;99.90;;;;;;5029628;28;20030;-73
2023/12/20 07:36:37;;;;;;;22.77;4.43;;;7.50;99.90;;;;;;5029403;28;20029;-73
2023/12/20 07:39:03;;;;;;;23.98;4.18;;;7.50;99.90;;;;;;5026644;28;20084;-72
2023/12/20 07:41:29;;;;;;;21.73;4.10;;;7.50;99.90;;;;;;5025054;28;20025;-73
2023/12/20 07:43:55;;;;;;;21.35;3.95;;;7.50;99.90;;;;;;5029019;28;20030;-73
2023/12/20 07:46:24;;;;;;;28.63;4.25;;;7.50;99.90;;;;;;5028310;28;20037;-73
2023/12/20 07:48:50;;;;;;;25.77;4.40;;;7.50;99.90;;;;;;5031268;28;20025;-73
2023/12/20 07:51:16;;;;;;;28.70;3.63;;;7.50;99.90;;;;;;5027471;28;20022;-73
2023/12/20 07:53:41;;;;;;;23.05;3.50;;;7.50;99.90;;;;;;5028840;28;20487;-73
2023/12/20 07:56:15;;;;;;;21.02;3.83;;;7.50;99.90;;;;;;5030311;28;20078;-73
2023/12/20 07:58:41;;;;;;;21.90;3.67;;;7.50;99.90;;;;;;5024058;28;20101;-73
2023/12/20 08:01:06;;;;;;;27.55;4.47;;;7.50;99.90;;;;;;5027853;28;20219;-73
2023/12/20 08:03:32;;;;;;;25.08;4.25;;;7.50;99.90;;;;;;5026221;28;20049;-73
2023/12/20 08:05:59;;;;;;;26.42;4.40;;;7.50;99.90;;;;;;5029173;28;20033;-73
2023/12/20 08:08:25;;;;;;;26.52;4.18;;;7.60;99.90;;;;;;5027829;28;20024;-73
2023/12/20 08:10:50;;;;;;;25.95;4.05;;;7.50;99.90;;;;;;5018680;28;20025;-73
2023/12/20 08:13:16;;;;;;;31.55;4.07;;;7.50;99.90;;;;;;5049027;22;20048;-72
2023/12/20 08:15:42;;;;;;;24.98;4.18;;;7.60;99.90;;;;;;5046942;28;20040;-73
2023/12/20 08:18:08;;;;;;;22.27;3.92;;;7.60;99.90;;;;;;5048698;28;20024;-73
2023/12/20 08:20:33;;;;;;;19.98;4.15;;;7.60;99.90;;;;;;5048288;28;20032;-73
2023/12/20 08:22:59;;;;;;;25.45;4.78;;;7.60;99.90;;;;;;5048515;28;20033;-73
2023/12/20 08:25:25;;;;;;;22.67;4.33;;;7.60;99.90;;;;;;5048395;28;20032;-73
2023/12/20 08:27:50;;;;;;;20.88;3.38;;;7.60;99.90;;;;;;5047978;28;20135;-73
2023/12/20 08:30:21;;;;;;;21.10;3.13;;;7.70;99.90;;;;;;5046423;28;20039;-73
2023/12/20 08:32:48;;;;;;;21.10;3.53;;;7.70;99.90;;;;;;5044513;28;20029;-73
2023/12/20 08:35:14;;;;;;;25.67;4.55;;;7.60;99.90;;;;;;5038731;28;20139;-73
2023/12/20 08:37:39;;;;;;;21.75;4.28;;;7.70;99.90;;;;;;5038485;28;20108;-72
2023/12/20 08:40:05;;;;;;;28.70;4.38;;;7.70;99.90;;;;;;5047057;28;20025;-72
2023/12/20 08:42:31;;;;;;;28.35;3.60;;;7.70;99.90;;;;;;5051912;28;20025;-72
2023/12/20 08:45:00;;;;;;;19.27;3.25;;;7.70;99.90;;;;;;5044936;28;20024;-73
2023/12/20 08:47:26;;;;;;;30.65;4.90;;;7.80;99.90;;;;;;5047611;28;20029;-73
2023/12/20 08:49:56;;;;;;;23.05;3.47;;;7.80;99.90;;;;;;5045569;28;20036;-73
2023/12/20 08:52:23;;;;;;;23.83;3.50;;;7.80;99.90;;;;;;5046315;28;20013;-73
2023/12/20 08:54:51;;;;;;;19.60;2.92;;;7.80;99.90;;;;;;5047326;28;20049;-73
2023/12/20 08:57:18;;;;;;;15.90;3.08;;;7.80;99.90;;;;;;5047725;28;20074;-73
2023/12/20 08:59:44;;;;;;;26.63;3.72;;;7.80;99.90;;;;;;5045839;28;20037;-73
2023/12/20 09:02:10;;;;;;;19.88;3.28;;;7.80;99.90;;;;;;5047711;28;20098;-73
2023/12/20 09:04:35;;;;;;;21.98;3.92;;;7.80;99.90;;;;;;5040516;28;20439;-73
2023/12/20 09:07:01;;;;;;;22.63;5.00;;;7.90;99.90;;;;;;5046142;28;20043;-73
2023/12/20 09:09:27;;;;;;;27.10;4.18;;;7.90;99.90;;;;;;5041101;28;20505;-73
2023/12/20 09:11:52;;;;;;;25.13;3.55;;;7.90;99.90;;;;;;5047918;28;20039;-73
2023/12/20 09:14:18;;;;;;;29.80;3.50;;;7.90;99.90;;;;;;5037755;28;20426;-73
2023/12/20 09:16:44;;;;;;;27.88;3.78;;;7.90;99.90;;;;;;5046612;28;20035;-73
2023/12/20 09:19:10;;;;;;;25.23;4.85;;;7.90;99.90;;;;;;5045765;28;20044;-74
2023/12/20 09:21:35;;;;;;;26.63;4.10;;;7.90;99.90;;;;;;5046929;28;20078;-73
2023/12/20 09:24:01;;;;;;;27.25;3.72;;;7.80;99.90;;;;;;5046962;28;20044;-73
2023/12/20 09:26:27;;;;;;;21.35;4.00;;;7.80;99.90;;;;;;5046271;28;20025;-73
2023/12/20 09:28:52;;;;;;;27.20;4.25;;;7.80;99.90;;;;;;5045660;28;20097;-73
2023/12/20 09:31:18;;;;;;;22.98;4.00;;;7.80;99.90;;;;;;5045129;28;20024;-72
2023/12/20 09:33:43;;;;;;;25.92;3.47;;;7.80;99.90;;;;;;5045510;28;20021;-73
2023/12/20 09:36:09;;;;;;;28.52;4.40;;;7.80;99.90;;;;;;5045227;28;20029;-73
2023/12/20 09:38:35;;;;;;;29.88;4.32;;;7.70;99.90;;;;;;5044138;28;20035;-73
2023/12/20 09:41:03;;;;;;;25.70;4.15;;;7.70;99.90;;;;;;5040825;28;20365;-73
2023/12/20 09:43:30;;;;;;;24.23;3.42;;;7.70;99.90;;;;;;5045668;28;20112;-72
2023/12/20 09:45:59;;;;;;;22.80;3.67;;;7.70;99.90;;;;;;5046347;28;20029;-72
2023/12/20 09:48:27;;;;;;;28.17;3.63;;;7.70;99.90;;;;;;5046928;28;20501;-72
2023/12/20 09:50:53;;;;;;;25.45;3.53;;;7.70;99.90;;;;;;5046307;28;20032;-72
2023/12/20 09:53:23;;;;;;;24.40;3.72;;;7.60;99.90;;;;;;5047140;28;20519;-72
2023/12/20 09:55:49;;;;;;;26.08;4.13;;;7.60;99.90;;;;;;5046391;28;20075;-73
2023/12/20 09:58:15;;;;;;;22.67;3.67;;;7.60;99.90;;;;;;5047134;28;20028;-72
2023/12/20 10:00:40;;;;;;;25.17;5.57;;;7.60;99.90;;;;;;5046359;28;20017;-72
2023/12/20 10:03:07;;;;;;;17.90;3.33;;;7.60;99.90;;;;;;5045177;28;20143;-72
2023/12/20 10:05:33;;;;;;;24.90;3.95;;;7.60;99.90;;;;;;5045805;28;20029;-72
2023/12/20 10:08:00;;;;;;;27.25;3.85;;;7.60;99.90;;;;;;5046583;28;20025;-72
2023/12/20 10:10:26;;;;;;;21.17;3.72;;;7.70;99.90;;;;;;5046153;28;20025;-71
2023/12/20 10:13:06;;;;;;;28.13;4.63;;;7.70;99.90;;;;;;5046149;28;20410;-72
2023/12/20 10:15:36;;;;;;;25.08;3.53;;;7.70;99.90;;;;;;5037977;28;20021;-72
2023/12/20 10:18:03;;;;;;;33.63;3.88;;;7.70;99.90;;;;;;5041204;28;20024;-72
2023/12/20 10:20:29;;;;;;;25.95;4.05;;;7.70;99.90;;;;;;5045365;28;20123;-72
2023/12/20 10:22:56;;;;;;;21.50;3.88;;;7.70;99.90;;;;;;5046248;28;20107;-71
2023/12/20 10:25:22;;;;;;;23.83;4.00;;;7.70;99.90;;;;;;5046004;28;20037;-72
2023/12/20 10:27:49;;;;;;;27.20;3.53;;;7.70;99.90;;;;;;5046268;28;20090;-72
2023/12/20 10:30:15;;;;;;;30.15;4.28;;;7.70;99.90;;;;;;5046081;28;20131;-72
2023/12/20 10:32:40;;;;;;;22.15;4.32;;;7.70;99.90;;;;;;5046212;28;20508;-72
2023/12/20 10:35:07;;;;;;;24.48;4.20;;;7.70;99.90;;;;;;5046057;28;20457;-72
2023/12/20 10:37:38;;;;;;;25.85;4.65;;;7.70;99.90;;;;;;5045136;28;20033;-71
2023/12/20 10:40:06;;;;;;;24.02;3.58;;;7.70;99.90;;;;;;5045674;28;20029;-71
2023/12/20 10:42:33;;;;;;;24.48;4.00;;;7.70;99.90;;;;;;5046396;28;20052;-72
2023/12/20 10:45:00;;;;;;;34.47;5.45;;;7.70;99.90;;;;;;5045327;28;20471;-72
2023/12/20 10:47:27;;;;;;;18.10;3.55;;;7.70;99.90;;;;;;5045936;28;20056;-72
2023/12/20 10:49:54;;;;;;;25.33;3.83;;;7.70;99.90;;;;;;5045807;28;20036;-72
2023/12/20 10:52:23;;;;;;;23.23;3.92;;;7.70;99.90;;;;;;5044737;28;20025;-72
2023/12/20 10:54:49;;;;;;;25.95;4.60;;;7.80;99.90;;;;;;5044463;28;20025;-72
2023/12/20 10:57:17;;;;;;;22.17;4.40;;;7.70;99.90;;;;;;5044624;28;20471;-72
2023/12/20 10:59:49;;;;;;;25.40;3.28;;;7.80;99.90;;;;;;5046293;28;20025;-72
2023/12/20 11:02:14;;;;;;;;;;;7.70;99.90;;;;;;5046512;28;20116;-72
2023/12/20 11:05:08;;;;;;;28.15;4.18;;;7.80;99.90;;;;;;5046014;28;19999;-72
2023/12/20 11:07:45;;;;;;;31.13;4.72;;;7.70;99.90;;;;;;5041530;28;20029;-72
2023/12/20 11:10:23;;;;;;;24.20;3.92;;;7.70;99.90;;;;;;5045794;28;20059;-72
2023/12/20 11:13:02;;;;;;;24.08;5.07;;;7.80;99.90;;;;;;5046097;28;20068;-72
2023/12/20 11:15:28;;;;;;;30.85;4.68;;;7.80;99.90;;;;;;5045797;28;20492;-72
2023/12/20 11:17:58;;;;;;;30.85;4.72;;;7.80;99.90;;;;;;5044737;28;20029;-72
2023/12/20 11:20:34;;;;;;;29.57;4.57;;;7.80;99.90;;;;;;5046166;28;20033;-72
2023/12/20 11:23:00;;;;;;;34.53;5.03;;;7.90;99.90;;;;;;5044556;28;20263;-72
2023/12/20 11:25:26;;;;;;;30.42;4.65;;;8.00;99.90;;;;;;5045274;28;20467;-72
2023/12/20 11:28:09;;;;;;;24.05;3.95;;;8.00;99.90;;;;;;5045839;28;20107;-72
2023/12/20 11:31:02;;;;;;;24.90;3.88;;;8.00;99.90;;;;;;5044178;28;20021;-72
2023/12/20 11:33:48;;;;;;;24.35;4.28;;;8.10;99.90;;;;;;5045408;28;20210;-73
2023/12/20 11:36:15;;;;;;;27.27;4.50;;;8.10;99.90;;;;;;5045337;28;20088;-72
2023/12/20 11:38:57;;;;;;;22.17;4.25;;;8.10;99.90;;;;;;5044354;28;20266;-72
2023/12/20 11:41:24;;;;;;;23.65;4.28;;;8.10;99.90;;;;;;5045161;28;20379;-72
2023/12/20 11:43:53;;;;;;;29.10;4.50;;;8.20;99.90;;;;;;5044390;28;20052;-72
2023/12/20 11:46:19;;;;;;;22.40;4.20;;;8.20;99.90;;;;;;5046991;28;20116;-72
2023/12/20 11:48:45;;;;;;;26.92;3.78;;;8.20;99.90;;;;;;5047646;28;20108;-72
2023/12/20 11:51:12;;;;;;;20.27;3.58;;;8.20;99.90;;;;;;5048758;28;20051;-72
2023/12/20 11:53:38;;;;;;;31.17;4.80;;;8.30;99.90;;;;;;5048918;28;20033;-72
2023/12/20 11:56:06;;;;;;;24.77;3.47;;;8.30;99.90;;;;;;5048861;28;20051;-72
2023/12/20 11:58:33;;;;;;;29.85;4.82;;;8.30;99.90;;;;;;5047592;28;20029;-72
2023/12/20 12:00:59;;;;;;;19.60;3.70;;;8.30;99.90;;;;;;5048989;28;20017;-72
2023/12/20 12:03:24;;;;;;;26.13;4.22;;;8.40;99.90;;;;;;5049286;28;20082;-72
2023/12/20 12:05:50;;;;;;;20.85;3.63;;;8.30;99.90;;;;;;5048474;28;20414;-73
2023/12/20 12:08:17;;;;;;;26.17;4.15;;;8.30;99.90;;;;;;5048852;28;20250;-72
2023/12/20 12:10:44;;;;;;;27.02;3.85;;;8.40;99.90;;;;;;5048087;28;20387;-72
2023/12/20 12:13:10;;;;;;;24.85;4.38;;;8.40;99.90;;;;;;5048946;28;20036;-72
2023/12/20 12:15:36;;;;;;;27.48;5.05;;;8.40;99.90;;;;;;5048717;28;20086;-72
2023/12/20 12:18:02;;;;;;;33.67;4.40;;;8.40;99.90;;;;;;5034603;28;20013;-72
2023/12/20 12:20:28;;;;;;;22.42;4.28;;;8.40;99.90;;;;;;5040438;28;20033;-72
2023/12/20 12:22:59;;;;;;;21.08;4.38;;;8.40;99.90;;;;;;5048511;28;20029;-72
2023/12/20 12:25:24;;;;;;;23.83;4.13;;;8.50;99.90;;;;;;5048265;28;20064;-72
2023/12/20 12:27:51;;;;;;;19.13;3.95;;;8.40;99.90;;;;;;5048311;28;20143;-72
2023/12/20 12:30:18;;;;;;;24.25;4.28;;;8.50;99.90;;;;;;5048323;28;20103;-72
2023/12/20 12:32:44;;;;;;;23.45;3.53;;;8.50;99.90;;;;;;5048257;28;20494;-72
2023/12/20 12:35:10;;;;;;;23.88;3.72;;;8.50;99.90;;;;;;5048147;28;20017;-73
2023/12/20 12:37:39;;;;;;;30.17;4.50;;;8.50;99.90;;;;;;5047701;28;20498;-72
2023/12/20 12:40:07;;;;;;;27.80;4.55;;;8.50;99.90;;;;;;5048258;28;20017;-72
2023/12/20 12:42:33;;;;;;;27.08;3.97;;;8.50;99.90;;;;;;5048294;28;20037;-73
2023/12/20 12:44:58;;;;;;;19.67;4.05;;;8.60;99.90;;;;;;5048050;28;20024;-73
2023/12/20 12:47:24;;;;;;;24.95;4.50;;;8.60;99.90;;;;;;5047598;28;20402;-72